sensor_id;sensor_type;location;lat;lon;timestamp;temperature;humidity
52036;DHT22;38046;49.448;32.074;2022-09-09T00:01:10;16.40;65.30
52036;DHT22;38046;49.448;32.074;2022-09-09T00:03:54;16.40;65.30
52036;DHT22;38046;49.448;32.074;2022-09-09T00:06:30;16.30;65.20
52036;DHT22;38046;49.448;32.074;2022-09-09T00:09:19;16.30;65.40
52036;DHT22;38046;49.448;32.074;2022-09-09T00:11:57;16.30;65.50
52036;DHT22;38046;49.448;32.074;2022-09-09T00:14:42;16.20;65.50
52036;DHT22;38046;49.448;32.074;2022-09-09T00:17:19;16.20;65.50
52036;DHT22;38046;49.448;32.074;2022-09-09T00:19:56;16.20;65.50
52036;DHT22;38046;49.448;32.074;2022-09-09T00:22:28;16.10;65.40
52036;DHT22;38046;49.448;32.074;2022-09-09T00:25:02;16.10;65.50
52036;DHT22;38046;49.448;32.074;2022-09-09T00:27:41;16.10;65.60
52036;DHT22;38046;49.448;32.074;2022-09-09T00:30:18;16.00;65.50
52036;DHT22;38046;49.448;32.074;2022-09-09T00:32:50;16.00;65.40
52036;DHT22;38046;49.448;32.074;2022-09-09T00:35:31;16.00;65.50
52036;DHT22;38046;49.448;32.074;2022-09-09T00:38:01;15.90;65.30
52036;DHT22;38046;49.448;32.074;2022-09-09T00:40:34;15.90;65.50
52036;DHT22;38046;49.448;32.074;2022-09-09T00:48:31;15.80;65.50
52036;DHT22;38046;49.448;32.074;2022-09-09T00:51:05;15.80;65.80
52036;DHT22;38046;49.448;32.074;2022-09-09T00:54:08;15.70;65.70
52036;DHT22;38046;49.448;32.074;2022-09-09T00:56:37;15.70;65.80
52036;DHT22;38046;49.448;32.074;2022-09-09T01:01:36;15.60;65.90
52036;DHT22;38046;49.448;32.074;2022-09-09T01:04:10;15.60;66.00
52036;DHT22;38046;49.448;32.074;2022-09-09T01:06:37;15.60;66.10
52036;DHT22;38046;49.448;32.074;2022-09-09T01:12:16;15.60;66.20
52036;DHT22;38046;49.448;32.074;2022-09-09T01:14:48;15.50;66.10
52036;DHT22;38046;49.448;32.074;2022-09-09T01:17:26;15.50;66.10
52036;DHT22;38046;49.448;32.074;2022-09-09T01:28:14;15.50;66.40
52036;DHT22;38046;49.448;32.074;2022-09-09T01:30:42;15.50;66.40
52036;DHT22;38046;49.448;32.074;2022-09-09T01:33:13;15.50;66.40
52036;DHT22;38046;49.448;32.074;2022-09-09T01:35:49;15.50;66.60
52036;DHT22;38046;49.448;32.074;2022-09-09T01:38:17;15.50;66.70
52036;DHT22;38046;49.448;32.074;2022-09-09T01:40:43;15.50;66.70
52036;DHT22;38046;49.448;32.074;2022-09-09T01:43:09;15.50;66.80
52036;DHT22;38046;49.448;32.074;2022-09-09T01:45:35;15.50;66.80
52036;DHT22;38046;49.448;32.074;2022-09-09T01:48:01;15.50;66.90
52036;DHT22;38046;49.448;32.074;2022-09-09T01:50:28;15.50;67.00
52036;DHT22;38046;49.448;32.074;2022-09-09T01:52:59;15.50;66.90
52036;DHT22;38046;49.448;32.074;2022-09-09T01:55:29;15.50;66.90
52036;DHT22;38046;49.448;32.074;2022-09-09T01:58:47;15.50;66.60
52036;DHT22;38046;49.448;32.074;2022-09-09T02:03:37;15.50;66.50
52036;DHT22;38046;49.448;32.074;2022-09-09T02:06:20;15.50;66.50
52036;DHT22;38046;49.448;32.074;2022-09-09T02:08:50;15.40;66.30
52036;DHT22;38046;49.448;32.074;2022-09-09T02:11:18;15.40;66.20
52036;DHT22;38046;49.448;32.074;2022-09-09T02:13:46;15.40;66.20
52036;DHT22;38046;49.448;32.074;2022-09-09T02:16:40;15.40;66.40
52036;DHT22;38046;49.448;32.074;2022-09-09T02:21:44;15.30;66.20
52036;DHT22;38046;49.448;32.074;2022-09-09T02:24:12;15.30;66.20
52036;DHT22;38046;49.448;32.074;2022-09-09T02:26:42;15.30;66.30
52036;DHT22;38046;49.448;32.074;2022-09-09T02:29:16;15.20;66.20
52036;DHT22;38046;49.448;32.074;2022-09-09T02:31:44;15.20;66.40
52036;DHT22;38046;49.448;32.074;2022-09-09T02:34:11;15.20;66.50
52036;DHT22;38046;49.448;32.074;2022-09-09T02:36:40;15.20;66.40
52036;DHT22;38046;49.448;32.074;2022-09-09T02:39:08;15.20;66.40
52036;DHT22;38046;49.448;32.074;2022-09-09T02:41:38;15.10;66.20
52036;DHT22;38046;49.448;32.074;2022-09-09T02:44:30;15.10;66.40
52036;DHT22;38046;49.448;32.074;2022-09-09T02:57:57;14.90;66.60
52036;DHT22;38046;49.448;32.074;2022-09-09T03:00:25;14.80;66.50
52036;DHT22;38046;49.448;32.074;2022-09-09T03:02:53;14.80;66.70
52036;DHT22;38046;49.448;32.074;2022-09-09T03:05:19;14.80;66.80
52036;DHT22;38046;49.448;32.074;2022-09-09T03:07:46;14.70;67.00
52036;DHT22;38046;49.448;32.074;2022-09-09T03:10:12;14.70;67.10
52036;DHT22;38046;49.448;32.074;2022-09-09T03:12:37;14.80;67.20
52036;DHT22;38046;49.448;32.074;2022-09-09T03:15:04;14.80;67.30
52036;DHT22;38046;49.448;32.074;2022-09-09T03:17:30;14.80;67.20
52036;DHT22;38046;49.448;32.074;2022-09-09T03:19:56;14.80;67.30
52036;DHT22;38046;49.448;32.074;2022-09-09T03:22:23;14.80;67.30
52036;DHT22;38046;49.448;32.074;2022-09-09T03:24:48;14.70;67.20
52036;DHT22;38046;49.448;32.074;2022-09-09T03:27:14;14.70;67.40
52036;DHT22;38046;49.448;32.074;2022-09-09T03:29:40;14.70;67.40
52036;DHT22;38046;49.448;32.074;2022-09-09T03:32:05;14.70;67.50
52036;DHT22;38046;49.448;32.074;2022-09-09T03:34:31;14.70;67.50
52036;DHT22;38046;49.448;32.074;2022-09-09T03:36:57;14.70;67.60
52036;DHT22;38046;49.448;32.074;2022-09-09T03:39:23;14.70;67.60
52036;DHT22;38046;49.448;32.074;2022-09-09T03:41:48;14.80;67.50
52036;DHT22;38046;49.448;32.074;2022-09-09T03:44:14;14.80;67.50
52036;DHT22;38046;49.448;32.074;2022-09-09T03:46:40;14.80;67.60
52036;DHT22;38046;49.448;32.074;2022-09-09T03:49:06;14.80;67.50
52036;DHT22;38046;49.448;32.074;2022-09-09T03:51:31;14.90;67.40
52036;DHT22;38046;49.448;32.074;2022-09-09T03:53:59;14.90;67.50
52036;DHT22;38046;49.448;32.074;2022-09-09T03:56:25;15.00;67.50
52036;DHT22;38046;49.448;32.074;2022-09-09T03:58:50;15.10;67.40
52036;DHT22;38046;49.448;32.074;2022-09-09T04:01:16;15.20;67.30
52036;DHT22;38046;49.448;32.074;2022-09-09T04:03:43;15.20;67.10
52036;DHT22;38046;49.448;32.074;2022-09-09T04:06:11;15.20;67.10
52036;DHT22;38046;49.448;32.074;2022-09-09T04:08:37;15.30;67.20
52036;DHT22;38046;49.448;32.074;2022-09-09T04:11:04;15.40;67.40
52036;DHT22;38046;49.448;32.074;2022-09-09T04:13:32;15.40;67.30
52036;DHT22;38046;49.448;32.074;2022-09-09T04:15:59;15.40;67.10
52036;DHT22;38046;49.448;32.074;2022-09-09T04:18:26;15.50;67.10
52036;DHT22;38046;49.448;32.074;2022-09-09T04:20:54;15.50;66.80
52036;DHT22;38046;49.448;32.074;2022-09-09T04:23:21;15.50;66.70
52036;DHT22;38046;49.448;32.074;2022-09-09T04:25:52;15.50;66.60
52036;DHT22;38046;49.448;32.074;2022-09-09T04:28:20;15.50;66.60
52036;DHT22;38046;49.448;32.074;2022-09-09T04:30:46;15.50;66.60
52036;DHT22;38046;49.448;32.074;2022-09-09T04:33:13;15.60;66.60
52036;DHT22;38046;49.448;32.074;2022-09-09T04:35:43;15.60;66.60
52036;DHT22;38046;49.448;32.074;2022-09-09T04:38:09;15.60;66.70
52036;DHT22;38046;49.448;32.074;2022-09-09T04:40:35;15.70;66.90
52036;DHT22;38046;49.448;32.074;2022-09-09T04:43:02;15.70;66.60
52036;DHT22;38046;49.448;32.074;2022-09-09T04:45:30;15.80;66.40
52036;DHT22;38046;49.448;32.074;2022-09-09T04:47:56;15.80;66.30
52036;DHT22;38046;49.448;32.074;2022-09-09T04:50:22;15.90;66.50
52036;DHT22;38046;49.448;32.074;2022-09-09T04:52:47;16.00;66.00
52036;DHT22;38046;49.448;32.074;2022-09-09T04:55:14;16.00;65.60
52036;DHT22;38046;49.448;32.074;2022-09-09T04:57:40;16.00;65.50
52036;DHT22;38046;49.448;32.074;2022-09-09T05:00:06;16.10;65.70
52036;DHT22;38046;49.448;32.074;2022-09-09T05:02:32;16.10;65.70
52036;DHT22;38046;49.448;32.074;2022-09-09T05:04:58;16.20;65.70
52036;DHT22;38046;49.448;32.074;2022-09-09T05:07:26;16.20;65.50
52036;DHT22;38046;49.448;32.074;2022-09-09T05:09:52;16.30;65.40
52036;DHT22;38046;49.448;32.074;2022-09-09T05:12:18;16.30;65.40
52036;DHT22;38046;49.448;32.074;2022-09-09T05:14:44;16.30;65.50
52036;DHT22;38046;49.448;32.074;2022-09-09T05:17:10;16.50;65.50
52036;DHT22;38046;49.448;32.074;2022-09-09T05:19:36;16.70;65.10
52036;DHT22;38046;49.448;32.074;2022-09-09T05:22:02;16.90;64.50
52036;DHT22;38046;49.448;32.074;2022-09-09T05:24:28;17.00;64.20
52036;DHT22;38046;49.448;32.074;2022-09-09T05:26:53;17.00;63.80
52036;DHT22;38046;49.448;32.074;2022-09-09T05:29:19;17.00;63.80
52036;DHT22;38046;49.448;32.074;2022-09-09T05:31:45;17.00;63.70
52036;DHT22;38046;49.448;32.074;2022-09-09T05:34:12;17.00;63.60
52036;DHT22;38046;49.448;32.074;2022-09-09T05:36:38;17.00;63.90
52036;DHT22;38046;49.448;32.074;2022-09-09T05:39:03;17.10;64.20
52036;DHT22;38046;49.448;32.074;2022-09-09T05:41:29;17.30;63.90
52036;DHT22;38046;49.448;32.074;2022-09-09T05:43:56;17.40;63.30
52036;DHT22;38046;49.448;32.074;2022-09-09T05:46:24;17.50;62.90
52036;DHT22;38046;49.448;32.074;2022-09-09T05:48:51;17.50;62.80
52036;DHT22;38046;49.448;32.074;2022-09-09T05:51:22;17.50;62.60
52036;DHT22;38046;49.448;32.074;2022-09-09T05:53:49;17.50;62.40
52036;DHT22;38046;49.448;32.074;2022-09-09T05:56:21;17.70;62.30
52036;DHT22;38046;49.448;32.074;2022-09-09T05:58:49;17.80;61.80
52036;DHT22;38046;49.448;32.074;2022-09-09T06:01:20;17.80;61.50
52036;DHT22;38046;49.448;32.074;2022-09-09T06:03:47;17.80;61.30
52036;DHT22;38046;49.448;32.074;2022-09-09T06:06:16;17.80;61.50
52036;DHT22;38046;49.448;32.074;2022-09-09T06:08:43;17.70;61.40
52036;DHT22;38046;49.448;32.074;2022-09-09T06:11:16;17.70;61.50
52036;DHT22;38046;49.448;32.074;2022-09-09T06:13:42;17.60;61.60
52036;DHT22;38046;49.448;32.074;2022-09-09T06:16:10;17.60;61.60
52036;DHT22;38046;49.448;32.074;2022-09-09T06:18:40;17.50;61.70
52036;DHT22;38046;49.448;32.074;2022-09-09T06:21:17;17.50;61.60
52036;DHT22;38046;49.448;32.074;2022-09-09T06:23:44;17.50;61.50
52036;DHT22;38046;49.448;32.074;2022-09-09T06:26:14;17.50;61.60
52036;DHT22;38046;49.448;32.074;2022-09-09T06:28:40;17.40;61.60
52036;DHT22;38046;49.448;32.074;2022-09-09T06:31:10;17.40;61.60
52036;DHT22;38046;49.448;32.074;2022-09-09T06:33:38;17.50;61.60
52036;DHT22;38046;49.448;32.074;2022-09-09T06:36:16;17.50;61.60
52036;DHT22;38046;49.448;32.074;2022-09-09T06:38:42;17.50;61.60
52036;DHT22;38046;49.448;32.074;2022-09-09T06:41:09;17.50;61.40
52036;DHT22;38046;49.448;32.074;2022-09-09T06:43:35;17.60;61.50
52036;DHT22;38046;49.448;32.074;2022-09-09T06:46:08;17.60;61.40
52036;DHT22;38046;49.448;32.074;2022-09-09T06:48:34;17.60;61.20
52036;DHT22;38046;49.448;32.074;2022-09-09T06:51:10;17.70;61.10
52036;DHT22;38046;49.448;32.074;2022-09-09T06:53:37;17.70;61.10
52036;DHT22;38046;49.448;32.074;2022-09-09T06:56:19;17.70;60.80
52036;DHT22;38046;49.448;32.074;2022-09-09T06:58:47;17.70;60.60
52036;DHT22;38046;49.448;32.074;2022-09-09T07:01:18;17.70;60.60
52036;DHT22;38046;49.448;32.074;2022-09-09T07:03:49;17.80;60.40
52036;DHT22;38046;49.448;32.074;2022-09-09T07:06:16;17.80;61.10
52036;DHT22;38046;49.448;32.074;2022-09-09T07:08:43;17.80;60.10
52036;DHT22;38046;49.448;32.074;2022-09-09T07:11:09;17.80;60.30
52036;DHT22;38046;49.448;32.074;2022-09-09T07:13:36;17.80;60.10
52036;DHT22;38046;49.448;32.074;2022-09-09T07:16:09;17.80;60.10
52036;DHT22;38046;49.448;32.074;2022-09-09T07:18:36;17.90;60.00
52036;DHT22;38046;49.448;32.074;2022-09-09T07:21:03;17.90;59.90
52036;DHT22;38046;49.448;32.074;2022-09-09T07:23:29;17.90;59.80
52036;DHT22;38046;49.448;32.074;2022-09-09T07:25:56;17.90;59.70
52036;DHT22;38046;49.448;32.074;2022-09-09T07:28:22;17.90;59.80
52036;DHT22;38046;49.448;32.074;2022-09-09T07:30:59;18.00;59.80
52036;DHT22;38046;49.448;32.074;2022-09-09T07:33:26;18.00;59.50
52036;DHT22;38046;49.448;32.074;2022-09-09T07:35:52;18.00;59.50
52036;DHT22;38046;49.448;32.074;2022-09-09T07:38:21;18.00;59.50
52036;DHT22;38046;49.448;32.074;2022-09-09T07:40:48;18.10;59.30
52036;DHT22;38046;49.448;32.074;2022-09-09T07:43:13;18.10;59.00
52036;DHT22;38046;49.448;32.074;2022-09-09T07:45:39;18.10;58.80
52036;DHT22;38046;49.448;32.074;2022-09-09T07:48:06;18.10;58.80
52036;DHT22;38046;49.448;32.074;2022-09-09T07:50:32;18.20;58.70
52036;DHT22;38046;49.448;32.074;2022-09-09T07:52:58;18.20;58.50
52036;DHT22;38046;49.448;32.074;2022-09-09T07:55:25;18.20;58.40
52036;DHT22;38046;49.448;32.074;2022-09-09T07:57:51;18.20;58.50
52036;DHT22;38046;49.448;32.074;2022-09-09T08:00:17;18.20;58.50
52036;DHT22;38046;49.448;32.074;2022-09-09T08:02:44;18.20;58.40
52036;DHT22;38046;49.448;32.074;2022-09-09T08:05:09;18.20;58.40
52036;DHT22;38046;49.448;32.074;2022-09-09T08:07:35;18.20;58.40
52036;DHT22;38046;49.448;32.074;2022-09-09T08:10:02;18.20;58.30
52036;DHT22;38046;49.448;32.074;2022-09-09T08:12:27;18.30;58.10
52036;DHT22;38046;49.448;32.074;2022-09-09T08:14:53;18.30;58.00
52036;DHT22;38046;49.448;32.074;2022-09-09T08:17:19;18.30;58.00
52036;DHT22;38046;49.448;32.074;2022-09-09T08:19:45;18.40;58.00
52036;DHT22;38046;49.448;32.074;2022-09-09T08:22:11;18.40;57.80
52036;DHT22;38046;49.448;32.074;2022-09-09T08:24:36;18.50;58.00
52036;DHT22;38046;49.448;32.074;2022-09-09T08:27:02;18.50;58.40
52036;DHT22;38046;49.448;32.074;2022-09-09T08:29:27;18.60;57.70
52036;DHT22;38046;49.448;32.074;2022-09-09T08:31:56;18.60;57.60
52036;DHT22;38046;49.448;32.074;2022-09-09T08:34:23;18.60;57.50
52036;DHT22;38046;49.448;32.074;2022-09-09T08:36:51;18.60;57.40
52036;DHT22;38046;49.448;32.074;2022-09-09T08:39:19;18.70;57.40
52036;DHT22;38046;49.448;32.074;2022-09-09T08:44:24;18.80;57.70
52036;DHT22;38046;49.448;32.074;2022-09-09T08:55:51;18.90;56.70
52036;DHT22;38046;49.448;32.074;2022-09-09T08:58:25;18.90;56.70
52036;DHT22;38046;49.448;32.074;2022-09-09T09:09:52;18.90;56.20
52036;DHT22;38046;49.448;32.074;2022-09-09T09:12:24;18.90;56.20
52036;DHT22;38046;49.448;32.074;2022-09-09T09:14:51;18.80;56.10
52036;DHT22;38046;49.448;32.074;2022-09-09T09:17:19;18.80;56.00
52036;DHT22;38046;49.448;32.074;2022-09-09T09:19:47;18.80;56.00
52036;DHT22;38046;49.448;32.074;2022-09-09T09:22:21;18.80;56.00
52036;DHT22;38046;49.448;32.074;2022-09-09T09:24:55;18.80;56.00
52036;DHT22;38046;49.448;32.074;2022-09-09T09:29:54;18.80;56.00
52036;DHT22;38046;49.448;32.074;2022-09-09T09:32:24;18.80;56.00
52036;DHT22;38046;49.448;32.074;2022-09-09T09:34:56;18.80;55.90
52036;DHT22;38046;49.448;32.074;2022-09-09T09:37:30;18.80;55.90
52036;DHT22;38046;49.448;32.074;2022-09-09T09:40:07;18.80;55.80
52036;DHT22;38046;49.448;32.074;2022-09-09T09:42:32;18.80;55.90
52036;DHT22;38046;49.448;32.074;2022-09-09T09:45:08;18.90;55.90
52036;DHT22;38046;49.448;32.074;2022-09-09T09:47:35;18.80;55.80
52036;DHT22;38046;49.448;32.074;2022-09-09T09:50:01;18.80;55.60
52036;DHT22;38046;49.448;32.074;2022-09-09T09:52:29;18.80;55.40
52036;DHT22;38046;49.448;32.074;2022-09-09T09:54:57;18.80;55.30
52036;DHT22;38046;49.448;32.074;2022-09-09T09:57:31;18.80;55.50
52036;DHT22;38046;49.448;32.074;2022-09-09T10:02:41;18.80;55.40
52036;DHT22;38046;49.448;32.074;2022-09-09T10:05:26;18.90;55.40
52036;DHT22;38046;49.448;32.074;2022-09-09T10:08:13;18.90;55.20
52036;DHT22;38046;49.448;32.074;2022-09-09T10:10:47;19.00;54.90
52036;DHT22;38046;49.448;32.074;2022-09-09T10:16:15;19.10;55.20
52036;DHT22;38046;49.448;32.074;2022-09-09T10:19:10;19.10;55.30
52036;DHT22;38046;49.448;32.074;2022-09-09T10:36:01;19.50;54.90
52036;DHT22;38046;49.448;32.074;2022-09-09T10:38:43;19.50;54.60
52036;DHT22;38046;49.448;32.074;2022-09-09T10:41:15;19.60;54.50
52036;DHT22;38046;49.448;32.074;2022-09-09T10:46:57;19.50;54.20
52036;DHT22;38046;49.448;32.074;2022-09-09T10:49:35;19.50;54.30
52036;DHT22;38046;49.448;32.074;2022-09-09T10:55:16;19.50;53.90
52036;DHT22;38046;49.448;32.074;2022-09-09T10:57:55;19.40;54.20
52036;DHT22;38046;49.448;32.074;2022-09-09T11:00:23;19.40;54.30
52036;DHT22;38046;49.448;32.074;2022-09-09T11:02:58;19.40;54.30
52036;DHT22;38046;49.448;32.074;2022-09-09T11:06:26;19.30;54.30
52036;DHT22;38046;49.448;32.074;2022-09-09T11:08:25;19.30;54.50
52036;DHT22;38046;49.448;32.074;2022-09-09T11:11:04;19.30;54.50
52036;DHT22;38046;49.448;32.074;2022-09-09T11:13:56;19.30;54.60
52036;DHT22;38046;49.448;32.074;2022-09-09T11:19:35;19.40;54.90
52036;DHT22;38046;49.448;32.074;2022-09-09T11:25:13;19.50;54.60
52036;DHT22;38046;49.448;32.074;2022-09-09T11:30:27;19.60;54.50
52036;DHT22;38046;49.448;32.074;2022-09-09T11:36:44;19.70;54.60
52036;DHT22;38046;49.448;32.074;2022-09-09T11:41:40;19.70;54.40
52036;DHT22;38046;49.448;32.074;2022-09-09T11:44:17;19.70;54.30
52036;DHT22;38046;49.448;32.074;2022-09-09T11:46:46;19.70;54.20
52036;DHT22;38046;49.448;32.074;2022-09-09T11:49:39;19.70;54.20
52036;DHT22;38046;49.448;32.074;2022-09-09T11:52:41;19.70;54.30
52036;DHT22;38046;49.448;32.074;2022-09-09T11:55:09;19.70;54.40
52036;DHT22;38046;49.448;32.074;2022-09-09T11:57:37;19.70;54.40
52036;DHT22;38046;49.448;32.074;2022-09-09T12:00:05;19.70;54.50
52036;DHT22;38046;49.448;32.074;2022-09-09T12:02:31;19.70;54.30
52036;DHT22;38046;49.448;32.074;2022-09-09T12:04:58;19.80;54.20
52036;DHT22;38046;49.448;32.074;2022-09-09T12:12:33;19.80;54.30
52036;DHT22;38046;49.448;32.074;2022-09-09T12:15:24;19.80;54.60
52036;DHT22;38046;49.448;32.074;2022-09-09T12:17:53;19.90;54.30
52036;DHT22;38046;49.448;32.074;2022-09-09T12:30:36;19.90;53.60
52036;DHT22;38046;49.448;32.074;2022-09-09T12:33:10;20.00;53.50
52036;DHT22;38046;49.448;32.074;2022-09-09T12:35:36;20.00;53.50
52036;DHT22;38046;49.448;32.074;2022-09-09T12:38:05;20.00;53.50
52036;DHT22;38046;49.448;32.074;2022-09-09T12:40:35;20.10;53.50
52036;DHT22;38046;49.448;32.074;2022-09-09T12:43:15;20.10;53.30
52036;DHT22;38046;49.448;32.074;2022-09-09T12:45:42;20.20;53.20
52036;DHT22;38046;49.448;32.074;2022-09-09T12:48:09;20.30;53.20
52036;DHT22;38046;49.448;32.074;2022-09-09T12:50:50;20.30;52.90
52036;DHT22;38046;49.448;32.074;2022-09-09T12:53:25;20.30;52.90
52036;DHT22;38046;49.448;32.074;2022-09-09T12:56:08;20.30;52.60
52036;DHT22;38046;49.448;32.074;2022-09-09T12:58:44;20.30;52.30
52036;DHT22;38046;49.448;32.074;2022-09-09T13:01:30;20.30;51.90
52036;DHT22;38046;49.448;32.074;2022-09-09T13:03:57;20.30;52.20
52036;DHT22;38046;49.448;32.074;2022-09-09T13:08:49;20.30;52.30
52036;DHT22;38046;49.448;32.074;2022-09-09T13:13:57;20.20;52.30
52036;DHT22;38046;49.448;32.074;2022-09-09T13:16:29;20.10;51.80
52036;DHT22;38046;49.448;32.074;2022-09-09T13:19:06;20.10;51.90
52036;DHT22;38046;49.448;32.074;2022-09-09T13:21:38;20.10;52.20
52036;DHT22;38046;49.448;32.074;2022-09-09T13:24:06;20.00;51.80
52036;DHT22;38046;49.448;32.074;2022-09-09T13:26:33;20.00;51.60
52036;DHT22;38046;49.448;32.074;2022-09-09T13:29:29;20.00;51.40
52036;DHT22;38046;49.448;32.074;2022-09-09T13:32:06;20.00;51.30
52036;DHT22;38046;49.448;32.074;2022-09-09T13:34:38;20.00;51.50
52036;DHT22;38046;49.448;32.074;2022-09-09T13:45:18;19.90;51.90
52036;DHT22;38046;49.448;32.074;2022-09-09T13:47:46;19.90;51.80
52036;DHT22;38046;49.448;32.074;2022-09-09T13:50:27;19.90;51.70
52036;DHT22;38046;49.448;32.074;2022-09-09T13:52:55;19.80;51.70
52036;DHT22;38046;49.448;32.074;2022-09-09T13:55:24;19.80;51.80
52036;DHT22;38046;49.448;32.074;2022-09-09T14:00:20;19.80;51.70
52036;DHT22;38046;49.448;32.074;2022-09-09T14:02:47;19.80;51.60
52036;DHT22;38046;49.448;32.074;2022-09-09T14:05:13;19.80;51.40
52036;DHT22;38046;49.448;32.074;2022-09-09T14:07:39;19.80;51.40
52036;DHT22;38046;49.448;32.074;2022-09-09T14:10:06;19.80;51.30
52036;DHT22;38046;49.448;32.074;2022-09-09T14:12:32;19.80;51.10
52036;DHT22;38046;49.448;32.074;2022-09-09T14:14:58;19.70;51.00
52036;DHT22;38046;49.448;32.074;2022-09-09T14:17:25;19.70;51.00
52036;DHT22;38046;49.448;32.074;2022-09-09T14:19:54;19.70;51.00
52036;DHT22;38046;49.448;32.074;2022-09-09T14:22:21;19.60;51.00
52036;DHT22;38046;49.448;32.074;2022-09-09T14:24:47;19.70;51.20
52036;DHT22;38046;49.448;32.074;2022-09-09T14:27:13;19.70;51.20
52036;DHT22;38046;49.448;32.074;2022-09-09T14:29:40;19.70;51.30
52036;DHT22;38046;49.448;32.074;2022-09-09T14:32:06;19.60;51.10
52036;DHT22;38046;49.448;32.074;2022-09-09T14:34:31;19.60;51.20
52036;DHT22;38046;49.448;32.074;2022-09-09T14:36:58;19.70;51.50
52036;DHT22;38046;49.448;32.074;2022-09-09T14:39:24;19.60;51.50
52036;DHT22;38046;49.448;32.074;2022-09-09T14:41:49;19.60;51.40
52036;DHT22;38046;49.448;32.074;2022-09-09T14:44:15;19.60;51.40
52036;DHT22;38046;49.448;32.074;2022-09-09T14:46:41;19.60;51.60
52036;DHT22;38046;49.448;32.074;2022-09-09T14:49:08;19.60;51.70
52036;DHT22;38046;49.448;32.074;2022-09-09T14:51:35;19.60;51.90
52036;DHT22;38046;49.448;32.074;2022-09-09T14:54:01;19.60;51.80
52036;DHT22;38046;49.448;32.074;2022-09-09T14:56:30;19.50;51.80
52036;DHT22;38046;49.448;32.074;2022-09-09T14:58:57;19.60;51.80
52036;DHT22;38046;49.448;32.074;2022-09-09T15:01:24;19.50;52.00
52036;DHT22;38046;49.448;32.074;2022-09-09T15:03:55;19.50;52.00
52036;DHT22;38046;49.448;32.074;2022-09-09T15:06:22;19.50;52.00
52036;DHT22;38046;49.448;32.074;2022-09-09T15:08:51;19.50;52.10
52036;DHT22;38046;49.448;32.074;2022-09-09T15:11:17;19.50;51.90
52036;DHT22;38046;49.448;32.074;2022-09-09T15:13:43;19.50;51.80
52036;DHT22;38046;49.448;32.074;2022-09-09T15:16:18;19.50;51.70
52036;DHT22;38046;49.448;32.074;2022-09-09T15:18:45;19.50;51.80
52036;DHT22;38046;49.448;32.074;2022-09-09T15:21:13;19.50;51.90
52036;DHT22;38046;49.448;32.074;2022-09-09T15:23:39;19.50;51.70
52036;DHT22;38046;49.448;32.074;2022-09-09T15:26:05;19.50;51.70
52036;DHT22;38046;49.448;32.074;2022-09-09T15:28:36;19.50;51.60
52036;DHT22;38046;49.448;32.074;2022-09-09T15:31:05;19.50;51.70
52036;DHT22;38046;49.448;32.074;2022-09-09T15:33:32;19.50;51.60
52036;DHT22;38046;49.448;32.074;2022-09-09T15:35:58;19.50;51.60
52036;DHT22;38046;49.448;32.074;2022-09-09T15:38:23;19.50;51.50
52036;DHT22;38046;49.448;32.074;2022-09-09T15:40:54;19.50;51.40
52036;DHT22;38046;49.448;32.074;2022-09-09T15:43:20;19.50;51.50
52036;DHT22;38046;49.448;32.074;2022-09-09T15:45:46;19.50;51.70
52036;DHT22;38046;49.448;32.074;2022-09-09T15:48:14;19.50;51.90
52036;DHT22;38046;49.448;32.074;2022-09-09T15:50:39;19.50;51.80
52036;DHT22;38046;49.448;32.074;2022-09-09T15:53:05;19.50;51.80
52036;DHT22;38046;49.448;32.074;2022-09-09T15:55:31;19.50;51.90
52036;DHT22;38046;49.448;32.074;2022-09-09T15:57:57;19.50;51.90
52036;DHT22;38046;49.448;32.074;2022-09-09T16:00:23;19.50;51.80
52036;DHT22;38046;49.448;32.074;2022-09-09T16:02:49;19.50;51.70
52036;DHT22;38046;49.448;32.074;2022-09-09T16:05:15;19.50;51.70
52036;DHT22;38046;49.448;32.074;2022-09-09T16:07:41;19.50;51.50
52036;DHT22;38046;49.448;32.074;2022-09-09T16:10:08;19.50;51.80
52036;DHT22;38046;49.448;32.074;2022-09-09T16:12:34;19.50;51.60
52036;DHT22;38046;49.448;32.074;2022-09-09T16:15:00;19.50;51.90
52036;DHT22;38046;49.448;32.074;2022-09-09T16:17:26;19.50;52.20
52036;DHT22;38046;49.448;32.074;2022-09-09T16:19:53;19.50;52.40
52036;DHT22;38046;49.448;32.074;2022-09-09T16:22:20;19.50;52.20
52036;DHT22;38046;49.448;32.074;2022-09-09T16:24:45;19.50;52.20
52036;DHT22;38046;49.448;32.074;2022-09-09T16:27:11;19.50;52.20
52036;DHT22;38046;49.448;32.074;2022-09-09T16:29:37;19.50;51.90
52036;DHT22;38046;49.448;32.074;2022-09-09T16:32:02;19.50;51.90
52036;DHT22;38046;49.448;32.074;2022-09-09T16:34:28;19.50;52.10
52036;DHT22;38046;49.448;32.074;2022-09-09T16:36:53;19.40;52.40
52036;DHT22;38046;49.448;32.074;2022-09-09T16:39:20;19.40;52.60
52036;DHT22;38046;49.448;32.074;2022-09-09T16:41:48;19.40;52.90
52036;DHT22;38046;49.448;32.074;2022-09-09T16:44:15;19.40;52.80
52036;DHT22;38046;49.448;32.074;2022-09-09T16:46:43;19.40;52.40
52036;DHT22;38046;49.448;32.074;2022-09-09T16:49:13;19.40;52.50
52036;DHT22;38046;49.448;32.074;2022-09-09T16:51:45;19.40;52.80
52036;DHT22;38046;49.448;32.074;2022-09-09T16:54:12;19.40;52.80
52036;DHT22;38046;49.448;32.074;2022-09-09T16:56:40;19.40;53.10
52036;DHT22;38046;49.448;32.074;2022-09-09T16:59:27;19.40;53.10
52036;DHT22;38046;49.448;32.074;2022-09-09T17:01:52;19.40;52.70
52036;DHT22;38046;49.448;32.074;2022-09-09T17:04:22;19.40;52.70
52036;DHT22;38046;49.448;32.074;2022-09-09T17:06:50;19.30;52.20
52036;DHT22;38046;49.448;32.074;2022-09-09T17:09:17;19.30;52.00
52036;DHT22;38046;49.448;32.074;2022-09-09T17:11:44;19.20;52.00
52036;DHT22;38046;49.448;32.074;2022-09-09T17:14:14;19.20;52.10
52036;DHT22;38046;49.448;32.074;2022-09-09T17:16:40;19.20;52.20
52036;DHT22;38046;49.448;32.074;2022-09-09T17:19:06;19.10;52.40
52036;DHT22;38046;49.448;32.074;2022-09-09T17:21:34;19.10;52.40
52036;DHT22;38046;49.448;32.074;2022-09-09T17:24:01;19.00;52.40
52036;DHT22;38046;49.448;32.074;2022-09-09T17:26:29;19.00;52.70
52036;DHT22;38046;49.448;32.074;2022-09-09T17:28:56;18.90;53.70
52036;DHT22;38046;49.448;32.074;2022-09-09T17:31:24;18.90;53.20
52036;DHT22;38046;49.448;32.074;2022-09-09T17:33:51;18.80;53.10
52036;DHT22;38046;49.448;32.074;2022-09-09T17:36:23;18.70;53.20
52036;DHT22;38046;49.448;32.074;2022-09-09T17:38:50;18.70;53.40
52036;DHT22;38046;49.448;32.074;2022-09-09T17:41:21;18.60;53.70